首页
METAR-TAF:

METAR-TAF

机场 :

Page Field

麥爾茲堡, 佛罗里达州, 美国

纬度: 26-35-03N, 经度: 081-51-45W, 海拔: 5米

当前天气观测

该预报发布于1小时和5分钟前的23:53 UTC
风速9节,风向
温度 31°C
湿度 66%
气压 1016 hPa
能見度: 16.1公里
少量云层高于6000英尺
雷暴

METAR: KFMY 152353Z 17009KT 10SM TS FEW060 31/24 A3000 RMK AO2 TSB52 SLP159 T03110239 10356 20311 53002

时间: 20:58 (00:58 UTC)

预报

该预报发布于1小时和38分钟前的23:20 UTC
预报有效从16日的 00点(UTC)到 16日的 24点(UTC)
风速7节,风向东转东南
能見度: 10公里
散云层高于5000英尺, 积雨云.
散云层高于25000英尺
附近有雷暴
短暂存在
从 16日的 00点(UTC)到 16日的 01点(UTC)
能見度: 4.8公里
多云层高于2500英尺, 积雨云.
雷暴, 雨
从 16日的 0100点(UTC)
风速3节,风向东转东南
能見度: 10公里
散云层高于10000英尺
散云层高于25000英尺
从 16日的 1600点(UTC)
风速6节,风向东南
能見度: 10公里
少量云层高于3000英尺
散云层高于25000英尺
从 16日的 2000点(UTC)
风速7节,风向西南
能見度: 10公里
散云层高于3000英尺, 积雨云.
多云层高于25000英尺
附近有雷暴,

TAF: KFMY 152320Z 1600/1624 11007KT P6SM VCTS SCT050CB SCT250 TEMPO 1600/1601 3SM TSRA BKN025CB FM160100 11003KT P6SM SCT100 SCT250 FM161600 14006KT P6SM FEW030 SCT250 FM162000 22007KT P6SM VCTS SCT030CB BKN250

超过4000个机场的气象观测和天气预报(METAR&TAF报告)。

可查询的气象台以黄色和红色小点在地图上表示。

将鼠标移到小点上方,可查看气象台名称。

然后点击查看天气观测和预报。

如需切换地图:点击带黑十字的绿色按钮放大地图;点击带横线的绿色按钮缩小地图;或者点击绿色箭头查看邻近地区的地图。


METAR-TAF: